createdAt,value
2019-06-10T00:00:01.378Z,18.23
2019-06-10T00:02:30.898Z,18.16
2019-06-10T00:05:02.425Z,18.26
2019-06-10T00:07:31.574Z,18.26
2019-06-10T00:10:02.300Z,18.39
2019-06-10T00:12:32.208Z,18.45
2019-06-10T00:15:01.826Z,18.52
2019-06-10T00:17:31.659Z,18.56
2019-06-10T00:20:02.426Z,18.45
2019-06-10T00:22:31.543Z,18.26
2019-06-10T00:25:02.266Z,17.96
2019-06-10T00:27:31.133Z,17.87
2019-06-10T00:30:02.848Z,17.97
2019-06-10T00:32:32.045Z,18.02
2019-06-10T00:35:01.954Z,18.07
2019-06-10T00:37:31.502Z,18.18
2019-06-10T00:40:03.569Z,18.18
2019-06-10T00:42:31.449Z,18.21
2019-06-10T00:45:02.667Z,18.20
2019-06-10T00:47:30.782Z,18.23
2019-06-10T00:50:00.847Z,18.27
2019-06-10T00:52:30.891Z,18.28
2019-06-10T00:55:01.720Z,18.34
2019-06-10T00:57:31.445Z,18.35
2019-06-10T01:00:01.699Z,18.28
2019-06-10T01:02:31.876Z,18.16
2019-06-10T01:05:00.805Z,17.95
2019-06-10T01:07:31.094Z,17.95
2019-06-10T01:10:01.094Z,17.93
2019-06-10T01:12:31.615Z,17.91
2019-06-10T01:15:00.866Z,17.84
2019-06-10T01:17:31.134Z,17.76
2019-06-10T01:20:01.451Z,17.65
2019-06-10T01:22:31.470Z,17.56
2019-06-10T01:25:01.601Z,17.38
2019-06-10T01:27:31.517Z,17.19
2019-06-10T01:30:02.984Z,17.13
2019-06-10T01:32:31.212Z,17.03
2019-06-10T01:35:01.295Z,16.97
2019-06-10T01:37:31.119Z,16.95
2019-06-10T01:40:00.786Z,16.96
2019-06-10T01:42:30.680Z,16.78
2019-06-10T01:45:01.117Z,16.69
2019-06-10T01:47:30.966Z,16.72
2019-06-10T01:50:00.730Z,16.76
2019-06-10T01:52:31.550Z,16.76
2019-06-10T01:55:01.579Z,16.64
2019-06-10T01:57:30.859Z,16.60
2019-06-10T02:00:01.011Z,16.63
2019-06-10T02:02:34.516Z,16.65
2019-06-10T02:05:01.536Z,16.74
2019-06-10T02:07:31.810Z,16.80
2019-06-10T02:10:01.100Z,16.86
2019-06-10T02:12:31.553Z,16.87
2019-06-10T02:15:01.275Z,17.00
2019-06-10T02:17:31.443Z,17.00
2019-06-10T02:20:01.125Z,17.09
2019-06-10T02:22:31.676Z,17.03
2019-06-10T02:25:01.230Z,17.11
2019-06-10T02:27:31.466Z,17.22
2019-06-10T02:30:03.815Z,17.25
2019-06-10T02:32:36.167Z,17.18
2019-06-10T02:35:10.520Z,17.14
2019-06-10T02:37:32.669Z,17.16
2019-06-10T02:40:04.122Z,17.25
2019-06-10T02:42:35.835Z,17.28
2019-06-10T02:45:07.249Z,17.28
2019-06-10T02:47:37.983Z,17.20
2019-06-10T02:50:09.057Z,17.16
2019-06-10T02:52:38.728Z,17.14
2019-06-10T02:55:07.378Z,17.12
2019-06-10T02:57:39.953Z,17.14
2019-06-10T03:00:20.704Z,17.23
2019-06-10T03:02:44.934Z,17.24
2019-06-10T03:05:14.337Z,17.26
2019-06-10T03:07:44.442Z,17.31
2019-06-10T03:10:13.707Z,17.34
2019-06-10T03:12:42.496Z,17.34
2019-06-10T03:15:12.594Z,17.32
2019-06-10T03:17:42.921Z,17.20
2019-06-10T03:20:12.314Z,17.08
2019-06-10T03:22:42.325Z,17.04
2019-06-10T03:25:13.174Z,17.03
2019-06-10T03:27:42.444Z,17.01
2019-06-10T03:30:19.769Z,16.99
2019-06-10T03:32:46.944Z,16.97
2019-06-10T03:35:14.104Z,17.06
2019-06-10T03:37:42.568Z,17.09
2019-06-10T03:40:13.085Z,17.03
2019-06-10T03:42:42.790Z,17.14
2019-06-10T03:45:12.711Z,17.05
2019-06-10T03:47:42.667Z,17.16
2019-06-10T03:50:13.252Z,17.17
2019-06-10T03:52:43.098Z,17.03
2019-06-10T03:55:12.336Z,17.04
2019-06-10T03:57:42.261Z,17.15
2019-06-10T04:00:14.059Z,17.17
2019-06-10T04:02:43.006Z,17.03
2019-06-10T04:05:13.297Z,16.99
2019-06-10T04:07:42.694Z,16.95
2019-06-10T04:10:12.541Z,16.90
2019-06-10T04:12:43.282Z,16.96
2019-06-10T04:15:12.277Z,17.03
2019-06-10T04:17:42.858Z,17.04
2019-06-10T04:20:14.953Z,17.06
2019-06-10T04:22:41.777Z,16.96
2019-06-10T04:25:12.149Z,17.03
2019-06-10T04:27:42.486Z,17.05
2019-06-10T04:30:12.753Z,16.94
2019-06-10T04:32:42.895Z,17.01
2019-06-10T04:35:12.647Z,17.00
2019-06-10T04:37:42.833Z,16.99
2019-06-10T04:40:13.307Z,16.92
2019-06-10T04:42:43.576Z,16.84
2019-06-10T04:45:12.508Z,16.83
2019-06-10T04:47:43.031Z,16.85
2019-06-10T04:50:24.019Z,16.86
2019-06-10T04:52:43.087Z,16.92
2019-06-10T04:55:12.631Z,16.98
2019-06-10T04:57:43.015Z,17.10
2019-06-10T05:00:14.543Z,17.23
2019-06-10T05:02:43.060Z,17.27
2019-06-10T05:05:13.107Z,17.33
2019-06-10T05:07:42.818Z,17.29
2019-06-10T05:10:12.426Z,17.38
2019-06-10T05:12:43.132Z,17.48
2019-06-10T05:15:12.589Z,17.54
2019-06-10T05:17:43.073Z,17.53
2019-06-10T05:20:12.522Z,17.35
2019-06-10T05:22:42.404Z,17.17
2019-06-10T05:25:12.886Z,17.08
2019-06-10T05:27:42.964Z,17.07
2019-06-10T05:30:12.361Z,17.04
2019-06-10T05:32:42.978Z,16.95
2019-06-10T05:35:12.373Z,17.09
2019-06-10T05:37:42.295Z,17.13
2019-06-10T05:40:12.743Z,17.23
2019-06-10T05:42:42.611Z,17.25
2019-06-10T05:45:12.281Z,17.38
2019-06-10T05:47:42.750Z,17.48
2019-06-10T05:50:12.894Z,17.56
2019-06-10T05:52:42.707Z,17.57
2019-06-10T05:55:12.151Z,17.55
2019-06-10T05:57:42.630Z,17.54
2019-06-10T06:00:14.083Z,17.61
2019-06-10T06:02:43.115Z,17.70
2019-06-10T06:05:12.891Z,17.82
2019-06-10T06:07:42.351Z,17.89
2019-06-10T06:10:13.051Z,17.82
2019-06-10T06:12:42.443Z,17.71
2019-06-10T06:15:12.979Z,17.68
2019-06-10T06:17:43.224Z,17.63
2019-06-10T06:20:13.316Z,17.58
2019-06-10T06:22:42.873Z,17.51
2019-06-10T06:25:15.065Z,17.36
2019-06-10T06:27:44.093Z,17.26
2019-06-10T06:30:18.482Z,17.26
2019-06-10T06:32:43.639Z,17.31
2019-06-10T06:35:12.680Z,17.38
2019-06-10T06:37:42.862Z,17.46
2019-06-10T06:40:13.240Z,17.56
2019-06-10T06:42:43.275Z,17.68
2019-06-10T06:45:12.646Z,17.84
2019-06-10T06:47:43.507Z,18.00
2019-06-10T06:50:13.107Z,18.23
2019-06-10T06:53:15.383Z,18.42
2019-06-10T06:55:12.823Z,18.52
2019-06-10T06:57:43.343Z,18.65
2019-06-10T07:00:37.269Z,18.66
2019-06-10T07:02:43.544Z,18.49
2019-06-10T07:05:12.600Z,18.53
2019-06-10T07:07:43.160Z,18.66
2019-06-10T07:10:12.240Z,18.67
2019-06-10T07:12:43.829Z,18.69
2019-06-10T07:15:12.175Z,18.56
2019-06-10T07:17:41.652Z,18.73
2019-06-10T07:20:12.668Z,18.80
2019-06-10T07:22:42.762Z,18.90
2019-06-10T07:25:12.401Z,18.97
2019-06-10T07:27:45.127Z,19.12
2019-06-10T07:30:14.709Z,19.30
2019-06-10T07:32:45.400Z,19.45
2019-06-10T07:35:12.983Z,19.48
2019-06-10T07:37:43.968Z,19.51
2019-06-10T07:40:13.021Z,19.65
2019-06-10T07:42:43.708Z,19.71
2019-06-10T07:45:13.095Z,19.71
2019-06-10T07:47:43.797Z,19.84
2019-06-10T07:50:12.234Z,19.86
2019-06-10T07:52:46.050Z,19.94
2019-06-10T07:55:12.945Z,20.06
2019-06-10T07:57:43.987Z,20.11
2019-06-10T08:00:13.363Z,20.15
2019-06-10T08:02:44.663Z,20.06
2019-06-10T08:05:14.188Z,19.91
2019-06-10T08:07:44.076Z,19.84
2019-06-10T08:10:13.321Z,19.74
2019-06-10T08:12:44.155Z,19.84
2019-06-10T08:15:12.542Z,19.93
2019-06-10T08:17:42.950Z,19.94
2019-06-10T08:20:13.351Z,19.95
2019-06-10T08:22:50.174Z,19.93
2019-06-10T08:25:12.426Z,19.88
2019-06-10T08:27:43.977Z,19.81
2019-06-10T08:30:21.259Z,19.65
2019-06-10T08:32:46.336Z,19.55
2019-06-10T08:35:12.889Z,19.48
2019-06-10T08:37:43.241Z,19.35
2019-06-10T08:40:12.402Z,19.29
2019-06-10T08:42:43.614Z,19.30
2019-06-10T08:45:12.492Z,19.37
2019-06-10T08:47:41.845Z,19.47
2019-06-10T08:50:12.932Z,19.60
2019-06-10T08:52:56.058Z,19.60
2019-06-10T08:55:12.575Z,19.58
2019-06-10T08:57:45.257Z,19.62
2019-06-10T09:00:15.555Z,19.59
2019-06-10T09:02:45.979Z,19.50
2019-06-10T09:05:23.061Z,19.48
2019-06-10T09:07:54.233Z,19.48
2019-06-10T09:10:22.691Z,19.63
2019-06-10T09:12:54.566Z,19.86
2019-06-10T09:15:23.619Z,20.18
2019-06-10T09:17:52.950Z,20.56
2019-06-10T09:20:23.132Z,20.77
2019-06-10T09:23:13.945Z,20.89
2019-06-10T09:25:22.640Z,20.88
2019-06-10T09:27:54.237Z,20.92
2019-06-10T09:30:22.698Z,21.30
2019-06-10T09:32:55.685Z,21.52
2019-06-10T09:35:24.067Z,21.83
2019-06-10T09:37:55.624Z,22.05
2019-06-10T09:40:22.937Z,22.09
2019-06-10T09:42:54.762Z,22.18
2019-06-10T09:45:22.503Z,22.28
2019-06-10T09:47:58.619Z,22.34
2019-06-10T09:50:25.364Z,22.46
2019-06-10T09:52:57.119Z,22.48
2019-06-10T09:55:26.893Z,22.02
2019-06-10T09:57:59.785Z,21.84
2019-06-10T10:00:34.449Z,21.92
2019-06-10T10:03:03.468Z,21.90
2019-06-10T10:05:33.819Z,22.06
2019-06-10T10:08:02.659Z,22.37
2019-06-10T10:10:39.301Z,22.81
2019-06-10T10:13:12.917Z,23.31
2019-06-10T10:15:41.875Z,23.65
2019-06-10T10:18:13.428Z,23.93
2019-06-10T10:20:44.859Z,24.09
2019-06-10T10:23:13.680Z,24.31
2019-06-10T10:25:44.928Z,24.45
2019-06-10T10:28:13.418Z,24.66
2019-06-10T10:30:44.686Z,24.81
2019-06-10T10:33:12.881Z,25.00
2019-06-10T10:35:43.171Z,25.11
2019-06-10T10:38:14.315Z,25.21
2019-06-10T10:40:43.975Z,25.44
2019-06-10T10:43:27.560Z,25.55
2019-06-10T10:45:45.938Z,25.67
2019-06-10T10:48:14.087Z,25.79
2019-06-10T10:50:44.203Z,25.90
2019-06-10T10:53:13.026Z,26.03
2019-06-10T10:55:42.483Z,26.06
2019-06-10T10:58:12.845Z,25.95
2019-06-10T11:00:45.390Z,25.92
2019-06-10T11:03:13.691Z,25.97
2019-06-10T11:05:46.036Z,26.10
2019-06-10T11:08:14.417Z,26.01
2019-06-10T11:10:45.714Z,25.79
2019-06-10T11:13:14.112Z,25.46
2019-06-10T11:15:43.497Z,25.16
2019-06-10T11:18:14.450Z,24.95
2019-06-10T11:20:43.200Z,24.61
2019-06-10T11:23:12.355Z,24.49
2019-06-10T11:25:43.126Z,24.36
2019-06-10T11:28:11.971Z,24.11
2019-06-10T11:30:42.656Z,23.83
2019-06-10T11:33:11.013Z,24.06
2019-06-10T11:35:42.807Z,23.97
2019-06-10T11:38:12.858Z,23.83
2019-06-10T11:40:42.880Z,23.76
2019-06-10T11:43:13.078Z,23.85
2019-06-10T11:45:47.731Z,23.85
2019-06-10T11:48:12.957Z,23.85
2019-06-10T11:50:49.202Z,23.75
2019-06-10T11:53:23.077Z,23.54
2019-06-10T11:55:52.000Z,23.54
2019-06-10T11:58:22.449Z,23.47
2019-06-10T12:00:55.877Z,23.32
2019-06-10T12:03:23.054Z,23.23
2019-06-10T12:05:55.474Z,23.08
2019-06-10T12:08:23.721Z,22.84
2019-06-10T12:10:56.707Z,22.63
2019-06-10T12:13:22.707Z,22.49
2019-06-10T12:16:50.428Z,22.49
2019-06-10T12:18:23.092Z,22.48
2019-06-10T12:20:59.228Z,22.53
2019-06-10T12:23:23.794Z,22.50
2019-06-10T12:25:54.452Z,22.45
2019-06-10T12:28:22.447Z,22.46
2019-06-10T12:30:57.505Z,22.33
2019-06-10T12:33:25.557Z,22.33
2019-06-10T12:35:58.547Z,22.37
2019-06-10T12:38:25.315Z,22.35
2019-06-10T12:40:56.892Z,22.36
2019-06-10T12:43:24.697Z,22.29
2019-06-10T12:45:55.696Z,22.14
2019-06-10T12:48:24.321Z,22.09
2019-06-10T12:50:57.148Z,22.08
2019-06-10T12:56:15.311Z,22.23
2019-06-10T12:58:44.988Z,22.28
2019-06-10T13:01:13.802Z,22.23
2019-06-10T13:03:43.632Z,22.24
2019-06-10T13:06:13.268Z,22.29
2019-06-10T13:08:43.020Z,22.38
2019-06-10T13:11:13.389Z,22.35
2019-06-10T13:13:43.518Z,22.32
2019-06-10T13:16:14.056Z,22.43
2019-06-10T13:18:42.058Z,22.30
2019-06-10T13:21:16.459Z,22.19
2019-06-10T13:23:42.871Z,22.13
2019-06-10T13:26:16.479Z,22.05
2019-06-10T13:28:44.630Z,21.94
2019-06-10T13:31:35.272Z,21.86
2019-06-10T13:34:10.914Z,21.73
2019-06-10T13:36:37.075Z,21.58
2019-06-10T13:39:10.351Z,21.37
2019-06-10T13:41:45.908Z,21.25
2019-06-10T13:44:16.730Z,21.32
2019-06-10T13:46:49.081Z,21.32
2019-06-10T13:49:22.751Z,21.29
2019-06-10T13:51:53.435Z,21.23
2019-06-10T13:54:24.019Z,21.19
2019-06-10T13:56:54.240Z,21.04
2019-06-10T13:59:25.036Z,20.80
2019-06-10T14:01:59.824Z,20.70
2019-06-10T14:04:30.154Z,20.66
2019-06-10T14:07:01.502Z,20.52
2019-06-10T14:09:33.018Z,20.44
2019-06-10T14:12:03.941Z,20.42
2019-06-10T14:14:33.889Z,20.45
2019-06-10T14:17:05.598Z,20.42
2019-06-10T14:19:35.629Z,20.32
2019-06-10T14:22:07.838Z,20.22
2019-06-10T14:24:37.867Z,20.10
2019-06-10T14:27:09.165Z,20.12
2019-06-10T14:29:41.984Z,20.15
2019-06-10T14:32:14.345Z,20.17
2019-06-10T14:34:43.861Z,20.20
2019-06-10T14:37:15.534Z,20.26
2019-06-10T14:39:45.918Z,20.27
2019-06-10T14:42:16.313Z,20.32
2019-06-10T14:44:47.010Z,20.37
2019-06-10T14:47:17.069Z,20.44
2019-06-10T14:49:47.215Z,20.52
2019-06-10T14:52:17.129Z,20.60
2019-06-10T14:54:47.075Z,20.68
2019-06-10T14:57:18.363Z,20.74
2019-06-10T14:59:49.006Z,20.77
2019-06-10T15:02:22.016Z,20.75
2019-06-10T15:04:53.277Z,20.77
2019-06-10T15:07:24.120Z,20.67
2019-06-10T15:09:54.900Z,20.71
2019-06-10T15:12:24.797Z,20.72
2019-06-10T15:14:55.091Z,20.78
2019-06-10T15:17:25.545Z,20.86
2019-06-10T15:19:55.601Z,20.93
2019-06-10T15:22:25.718Z,20.96
2019-06-10T15:24:56.045Z,20.92
2019-06-10T15:27:30.618Z,20.95
2019-06-10T15:29:57.824Z,20.95
2019-06-10T15:32:34.477Z,20.99
2019-06-10T15:35:00.224Z,20.91
2019-06-10T15:37:29.737Z,20.97
2019-06-10T15:46:25.277Z,21.16
2019-06-10T15:49:02.189Z,21.19
2019-06-10T15:51:37.895Z,21.25
2019-06-10T15:54:33.320Z,21.25
2019-06-10T16:03:29.005Z,21.40
2019-06-10T16:08:58.615Z,21.24
2019-06-10T16:14:54.852Z,21.18
2019-06-10T16:17:53.872Z,21.19
2019-06-10T16:26:28.087Z,20.88
2019-06-10T16:29:07.293Z,20.93
2019-06-10T16:34:48.331Z,20.87
2019-06-10T16:37:46.462Z,21.00
2019-06-10T16:40:57.863Z,20.99
2019-06-10T16:43:29.709Z,21.04
2019-06-10T16:49:12.700Z,21.08
2019-06-10T16:51:52.036Z,21.05
2019-06-10T16:54:32.966Z,21.01
2019-06-10T16:57:24.063Z,20.95
2019-06-10T17:03:52.510Z,20.66
2019-06-10T17:06:42.354Z,20.44
2019-06-10T17:09:29.554Z,20.19
2019-06-10T17:12:24.636Z,19.89
2019-06-10T17:15:32.081Z,19.82
2019-06-10T17:18:13.966Z,19.82
2019-06-10T17:21:06.949Z,19.75
2019-06-10T17:23:45.744Z,19.65
2019-06-10T17:26:15.838Z,19.65
2019-06-10T17:28:46.586Z,19.64
2019-06-10T17:31:16.658Z,19.66
2019-06-10T17:33:47.062Z,19.54
2019-06-10T17:36:20.158Z,19.41
2019-06-10T17:38:52.365Z,19.30
2019-06-10T17:41:25.878Z,19.18
2019-06-10T17:43:55.485Z,19.08
2019-06-10T17:46:27.849Z,18.99
2019-06-10T17:48:58.060Z,18.87
2019-06-10T17:51:29.445Z,18.76
2019-06-10T17:54:02.290Z,18.73
2019-06-10T17:56:35.970Z,18.76
2019-06-10T17:59:04.136Z,18.85
2019-06-10T18:01:37.937Z,18.83
2019-06-10T18:04:08.358Z,18.83
2019-06-10T18:06:42.462Z,18.73
2019-06-10T18:09:12.497Z,18.67
2019-06-10T18:11:43.094Z,18.70
2019-06-10T18:14:14.415Z,18.67
2019-06-10T18:16:45.080Z,18.57
2019-06-10T18:19:15.182Z,18.57
2019-06-10T18:21:46.745Z,18.60
2019-06-10T18:24:20.568Z,18.59
2019-06-10T18:26:49.086Z,18.68
2019-06-10T18:29:20.050Z,18.74
2019-06-10T18:31:52.912Z,18.91
2019-06-10T18:34:22.765Z,19.06
2019-06-10T18:36:53.736Z,19.20
2019-06-10T18:39:44.982Z,19.30
2019-06-10T18:42:15.905Z,19.39
2019-06-10T18:44:46.535Z,19.40
2019-06-10T18:47:19.790Z,19.37
2019-06-10T18:49:49.781Z,19.48
2019-06-10T18:52:23.178Z,19.53
2019-06-10T18:54:52.890Z,19.57
2019-06-10T18:57:23.550Z,19.65
2019-06-10T18:59:53.758Z,19.62
2019-06-10T19:02:24.292Z,19.72
2019-06-10T19:04:57.228Z,19.76
2019-06-10T19:07:28.800Z,19.83
2019-06-10T19:09:58.972Z,19.79
2019-06-10T19:12:30.941Z,19.87
2019-06-10T19:15:04.887Z,19.90
2019-06-10T19:17:39.569Z,19.83
2019-06-10T19:20:08.525Z,19.91
2019-06-10T19:22:39.370Z,19.83
2019-06-10T19:25:12.730Z,19.89
2019-06-10T19:27:44.535Z,19.86
2019-06-10T19:30:15.422Z,19.92
2019-06-10T19:32:45.908Z,19.84
2019-06-10T19:35:16.409Z,19.96
2019-06-10T19:37:46.891Z,20.03
2019-06-10T19:40:17.348Z,20.06
2019-06-10T19:42:47.946Z,20.00
2019-06-10T19:45:19.626Z,19.94
2019-06-10T19:47:52.616Z,19.83
2019-06-10T19:50:22.496Z,19.79
2019-06-10T19:52:54.866Z,19.75
2019-06-10T19:55:25.055Z,19.74
2019-06-10T19:57:55.623Z,19.74
2019-06-10T20:00:29.126Z,19.82
2019-06-10T20:02:59.856Z,19.83
2019-06-10T20:05:34.862Z,19.95
2019-06-10T20:08:05.583Z,20.05
2019-06-10T20:10:36.289Z,20.02
2019-06-10T20:13:06.953Z,20.07
2019-06-10T20:15:42.069Z,20.08
2019-06-10T20:18:13.017Z,19.99
2019-06-10T20:20:47.057Z,19.98
2019-06-10T20:23:18.058Z,19.84
2019-06-10T20:25:48.857Z,19.84
2019-06-10T20:28:22.408Z,19.78
2019-06-10T20:30:53.136Z,19.69
2019-06-10T20:33:35.876Z,19.49
2019-06-10T20:36:07.587Z,19.46
2019-06-10T20:38:37.772Z,19.35
2019-06-10T20:41:08.978Z,19.27
2019-06-10T20:43:47.132Z,19.19
2019-06-10T20:46:16.937Z,19.20
2019-06-10T20:48:49.422Z,19.23
2019-06-10T20:51:19.772Z,19.17
2019-06-10T20:53:50.106Z,19.09
2019-06-10T20:56:23.836Z,18.98
2019-06-10T20:58:54.268Z,18.94
2019-06-10T21:01:25.640Z,18.83
2019-06-10T21:03:56.149Z,18.79
2019-06-10T21:06:27.075Z,18.91
2019-06-10T21:08:57.872Z,18.98
2019-06-10T21:11:28.209Z,19.03
2019-06-10T21:13:58.456Z,19.03
2019-06-10T21:16:28.764Z,19.07
2019-06-10T21:18:59.651Z,19.01
2019-06-10T21:21:29.465Z,19.00
2019-06-10T21:24:02.093Z,19.05
2019-06-10T21:26:32.622Z,18.96
2019-06-10T21:29:03.817Z,18.92
2019-06-10T21:31:34.265Z,18.82
2019-06-10T21:34:04.278Z,18.69
2019-06-10T21:36:34.530Z,18.71
2019-06-10T21:39:05.931Z,18.72
2019-06-10T21:41:36.322Z,18.65
2019-06-10T21:44:06.477Z,18.67
2019-06-10T21:46:37.056Z,18.60
2019-06-10T21:49:07.648Z,18.60
2019-06-10T21:51:43.681Z,18.61
2019-06-10T21:54:12.439Z,18.53
2019-06-10T21:56:46.892Z,18.43
2019-06-10T21:59:17.202Z,18.38
2019-06-10T22:01:47.605Z,18.40
2019-06-10T22:04:18.083Z,18.38
2019-06-10T22:06:49.587Z,18.45
2019-06-10T22:09:19.993Z,18.51
2019-06-10T22:11:52.272Z,18.54
2019-06-10T22:14:22.872Z,18.55
2019-06-10T22:16:56.143Z,18.55
2019-06-10T22:19:25.695Z,18.55
2019-06-10T22:21:56.780Z,18.61
2019-06-10T22:24:27.082Z,18.61
2019-06-10T22:26:57.093Z,18.49
2019-06-10T22:29:27.666Z,18.56
2019-06-10T22:31:57.701Z,18.55
2019-06-10T22:34:28.054Z,18.51
2019-06-10T22:36:58.685Z,18.51
2019-06-10T22:39:29.364Z,18.46
2019-06-10T22:42:03.095Z,18.42
2019-06-10T22:44:33.210Z,18.43
2019-06-10T22:47:03.375Z,18.31
2019-06-10T22:49:33.914Z,18.23
2019-06-10T22:52:04.114Z,18.05
2019-06-10T22:54:34.449Z,17.97
2019-06-10T22:57:04.367Z,18.00
2019-06-10T22:59:34.812Z,18.07
2019-06-10T23:02:04.876Z,18.06
2019-06-10T23:04:35.189Z,18.10
2019-06-10T23:07:05.204Z,18.05
2019-06-10T23:09:38.343Z,17.94
2019-06-10T23:12:07.713Z,17.97
2019-06-10T23:14:37.727Z,18.00
2019-06-10T23:17:08.978Z,18.09
2019-06-10T23:19:39.109Z,18.14
2019-06-10T23:22:09.621Z,18.17
2019-06-10T23:24:39.796Z,18.21
2019-06-10T23:27:10.064Z,18.25
2019-06-10T23:29:42.615Z,18.27
2019-06-10T23:32:13.070Z,18.25
2019-06-10T23:34:44.704Z,18.23
2019-06-10T23:37:15.070Z,18.17
2019-06-10T23:39:45.180Z,18.13
2019-06-10T23:42:18.444Z,18.11
2019-06-10T23:44:48.664Z,18.13
2019-06-10T23:47:18.955Z,18.09
2019-06-10T23:49:48.736Z,18.09
2019-06-10T23:52:19.238Z,18.07
2019-06-10T23:54:49.321Z,17.95
2019-06-10T23:57:22.217Z,17.94
2019-06-10T23:59:52.522Z,18.01
